Time;durP1;ratioP1;P1;durP2;ratioP2;P2;SDS_P1;SDS_P2;PMS_P1;PMS_P2;Temp;Humidity;BMP_temperature;BMP_pressure;BME280_temperature;BME280_humidity;BME280_pressure;Samples;Min_cycle;Max_cycle;Signal;HPM_P1;HPM_P2
2023/08/01 05:58:22;;;;;;;;;14.75;13.75;;;;;;;;5165452;27;13281;-65
2023/08/01 06:00:48;;;;;;;;;12.25;12.25;;;;;;;;5129815;27;9884;-65
2023/08/01 06:03:13;;;;;;;;;12.75;12.75;;;;;;;;5148143;27;8832;-65
2023/08/01 06:05:38;;;;;;;;;12.67;12.33;;;;;;;;5148178;27;8794;-66
2023/08/01 06:08:06;;;;;;;;;16.33;13.00;;;;;;;;5148278;27;8806;-65
2023/08/01 06:10:31;;;;;;;;;13.67;11.00;;;;;;;;5129280;27;8818;-69
2023/08/01 06:12:56;;;;;;;;;11.00;8.00;;;;;;;;5087758;27;10432;-67
2023/08/01 06:15:22;;;;;;;;;10.00;8.67;;;;;;;;5127365;27;8772;-68
2023/08/01 06:17:47;;;;;;;;;8.00;8.00;;;;;;;;5109131;27;8795;-69
2023/08/01 06:20:21;;;;;;;;;11.00;10.00;;;;;;;;5127446;27;8880;-69
2023/08/01 06:22:47;;;;;;;;;10.00;10.00;;;;;;;;5127446;27;8772;-68
2023/08/01 06:25:12;;;;;;;;;12.33;9.67;;;;;;;;5127610;27;9055;-69
2023/08/01 06:27:37;;;;;;;;;9.33;8.33;;;;;;;;5109245;27;8911;-72
2023/08/01 06:30:03;;;;;;;;;15.50;11.25;;;;;;;;5127173;27;8838;-69
2023/08/01 06:32:28;;;;;;;;;36.00;29.00;;;;;;;;5126075;27;8788;-69
2023/08/01 06:34:54;;;;;;;;;58.75;48.00;;;;;;;;5126933;27;8815;-69
2023/08/01 06:37:19;;;;;;;;;20.50;19.75;;;;;;;;5126983;27;8884;-69
2023/08/01 06:39:45;;;;;;;;;13.67;9.33;;;;;;;;5126864;27;8800;-69
2023/08/01 06:42:10;;;;;;;;;14.00;11.67;;;;;;;;5127039;27;8787;-68
2023/08/01 06:44:35;;;;;;;;;11.33;9.00;;;;;;;;5126782;27;8855;-68
2023/08/01 06:47:00;;;;;;;;;15.00;11.00;;;;;;;;5126776;27;8908;-68
2023/08/01 06:49:26;;;;;;;;;15.00;10.00;;;;;;;;5126645;27;9549;-68
2023/08/01 06:51:51;;;;;;;;;12.67;11.67;;;;;;;;5126729;27;8820;-68
2023/08/01 06:54:16;;;;;;;;;13.67;11.00;;;;;;;;5126478;27;8784;-69
2023/08/01 06:56:47;;;;;;;;;11.67;10.00;;;;;;;;5126660;27;8828;-68
2023/08/01 06:59:13;;;;;;;;;14.33;12.00;;;;;;;;5126455;27;8806;-69
2023/08/01 07:01:40;;;;;;;;;12.00;10.00;;;;;;;;5108022;27;9046;-68
2023/08/01 07:04:05;;;;;;;;;11.33;10.33;;;;;;;;5126206;27;8943;-68
2023/08/01 07:06:31;;;;;;;;;13.00;10.33;;;;;;;;5126288;27;8918;-69
2023/08/01 07:08:57;;;;;;;;;12.67;9.67;;;;;;;;5116982;28;9502;-69
2023/08/01 07:11:23;;;;;;;;;10.00;10.00;;;;;;;;5112483;28;9518;-70
2023/08/01 07:13:48;;;;;;;;;17.33;17.33;;;;;;;;5112660;28;9037;-69
2023/08/01 07:16:14;;;;;;;;;11.33;10.33;;;;;;;;5112464;28;8946;-69
2023/08/01 07:18:40;;;;;;;;;10.67;8.67;;;;;;;;5112652;28;8888;-69
2023/08/01 07:21:05;;;;;;;;;10.33;10.33;;;;;;;;5112308;28;8823;-69
2023/08/01 07:23:31;;;;;;;;;11.00;10.33;;;;;;;;5093938;28;8827;-68
2023/08/01 07:25:56;;;;;;;;;16.67;13.00;;;;;;;;5112408;28;8780;-68
2023/08/01 07:28:21;;;;;;;;;9.67;9.67;;;;;;;;5112509;28;8780;-68
2023/08/01 07:30:47;;;;;;;;;12.33;12.00;;;;;;;;5112287;28;8791;-68
2023/08/01 07:33:12;;;;;;;;;13.00;10.00;;;;;;;;5112225;28;8826;-68
2023/08/01 07:35:38;;;;;;;;;22.00;21.00;;;;;;;;5111909;28;8823;-69
2023/08/01 07:38:03;;;;;;;;;46.50;41.25;;;;;;;;5112072;28;8873;-68
2023/08/01 07:40:28;;;;;;;;;41.50;37.25;;;;;;;;5112083;28;8810;-68
2023/08/01 07:42:54;;;;;;;;;19.67;17.67;;;;;;;;5111973;28;8912;-68
2023/08/01 07:45:20;;;;;;;;;15.00;14.00;;;;;;;;5112087;28;8804;-68
2023/08/01 07:47:45;;;;;;;;;14.33;13.00;;;;;;;;5111967;28;8815;-68
2023/08/01 07:50:10;;;;;;;;;10.33;8.67;;;;;;;;5111917;28;8780;-68
2023/08/01 07:52:36;;;;;;;;;11.00;9.33;;;;;;;;5111810;28;8819;-68
2023/08/01 07:55:01;;;;;;;;;9.00;6.67;;;;;;;;5112336;28;8796;-68
2023/08/01 07:57:27;;;;;;;;;10.00;9.33;;;;;;;;5111703;28;8950;-67
2023/08/01 07:59:52;;;;;;;;;10.00;8.33;;;;;;;;5111830;28;8886;-68
2023/08/01 08:02:17;;;;;;;;;11.33;9.67;;;;;;;;5111755;28;8896;-68
2023/08/01 08:04:42;;;;;;;;;12.33;11.33;;;;;;;;5111391;28;8791;-68
2023/08/01 08:07:08;;;;;;;;;10.00;10.00;;;;;;;;5111462;28;8824;-68
2023/08/01 08:09:33;;;;;;;;;9.67;9.67;;;;;;;;5111743;28;8819;-69
2023/08/01 08:11:59;;;;;;;;;11.33;10.33;;;;;;;;5111441;28;9643;-68
2023/08/01 08:14:24;;;;;;;;;9.00;9.00;;;;;;;;5111432;28;8910;-68
2023/08/01 08:16:50;;;;;;;;;8.00;7.33;;;;;;;;5111454;28;8893;-68
2023/08/01 08:19:15;;;;;;;;;8.50;8.00;;;;;;;;5110921;28;8772;-69
2023/08/01 08:21:41;;;;;;;;;10.00;8.33;;;;;;;;5110798;28;8869;-69
2023/08/01 08:24:06;;;;;;;;;10.00;10.00;;;;;;;;5111081;28;8779;-68
2023/08/01 08:26:33;;;;;;;;;10.33;10.00;;;;;;;;5111070;28;8835;-68
2023/08/01 08:28:59;;;;;;;;;8.75;7.00;;;;;;;;5111138;28;8776;-68
2023/08/01 08:31:24;;;;;;;;;12.33;8.67;;;;;;;;5111094;28;8796;-69
2023/08/01 08:33:50;;;;;;;;;8.33;8.00;;;;;;;;5111028;28;8893;-68
2023/08/01 08:36:15;;;;;;;;;8.00;8.00;;;;;;;;5092489;28;8807;-69
2023/08/01 08:38:40;;;;;;;;;12.33;10.00;;;;;;;;5110851;28;8788;-69
2023/08/01 08:41:08;;;;;;;;;11.67;8.00;;;;;;;;5111077;28;9502;-68
2023/08/01 08:43:34;;;;;;;;;10.50;10.50;;;;;;;;5110808;28;8949;-68
2023/08/01 08:46:00;;;;;;;;;11.00;10.33;;;;;;;;5110795;28;8888;-69
2023/08/01 08:48:25;;;;;;;;;11.25;10.75;;;;;;;;5110745;28;8784;-69
2023/08/01 08:50:51;;;;;;;;;13.67;11.67;;;;;;;;5110593;28;9040;-69
2023/08/01 08:53:17;;;;;;;;;10.75;10.75;;;;;;;;5110587;28;8791;-69
2023/08/01 08:55:43;;;;;;;;;8.67;8.67;;;;;;;;5110898;28;8800;-69
2023/08/01 08:58:08;;;;;;;;;8.00;8.00;;;;;;;;5110718;28;8825;-69
2023/08/01 09:00:37;;;;;;;;;11.33;8.33;;;;;;;;5110915;28;8795;-69
2023/08/01 09:03:03;;;;;;;;;7.00;7.00;;;;;;;;5110380;28;8772;-68
2023/08/01 09:05:31;;;;;;;;;8.25;8.25;;;;;;;;5110139;28;8822;-68
2023/08/01 09:07:59;;;;;;;;;9.00;7.00;;;;;;;;5091919;28;8803;-69
2023/08/01 09:10:24;;;;;;;;;9.25;6.00;;;;;;;;5110218;28;8801;-69
2023/08/01 09:12:50;;;;;;;;;6.00;4.00;;;;;;;;5110338;28;8799;-69
2023/08/01 09:15:16;;;;;;;;;10.33;7.00;;;;;;;;5110231;28;8892;-69
2023/08/01 09:17:48;;;;;;;;;7.25;7.25;;;;;;;;5110237;28;8807;-69
2023/08/01 09:20:14;;;;;;;;;7.75;7.75;;;;;;;;5110133;28;8784;-68
2023/08/01 09:22:46;;;;;;;;;7.67;7.67;;;;;;;;5110097;28;8876;-69
2023/08/01 09:25:12;;;;;;;;;9.00;8.00;;;;;;;;5110085;28;8791;-69
2023/08/01 09:27:38;;;;;;;;;7.75;7.00;;;;;;;;5110050;28;8884;-69
2023/08/01 09:30:11;;;;;;;;;8.67;8.00;;;;;;;;5110143;28;8878;-68
2023/08/01 09:32:36;;;;;;;;;11.25;10.00;;;;;;;;5109707;28;8776;-68
2023/08/01 09:35:01;;;;;;;;;9.00;8.00;;;;;;;;5109760;28;8812;-68
2023/08/01 09:37:37;;;;;;;;;9.33;7.00;;;;;;;;5109946;28;8783;-68
2023/08/01 09:40:02;;;;;;;;;7.25;6.25;;;;;;;;5110138;28;8803;-69
2023/08/01 09:42:37;;;;;;;;;10.67;7.67;;;;;;;;5110047;28;8877;-69
2023/08/01 09:45:03;;;;;;;;;9.25;8.50;;;;;;;;5110012;28;8796;-68
2023/08/01 09:47:35;;;;;;;;;7.75;7.00;;;;;;;;5109552;28;8827;-69
2023/08/01 09:50:00;;;;;;;;;8.00;8.00;;;;;;;;5109727;28;8787;-69
2023/08/01 09:52:29;;;;;;;;;8.67;8.67;;;;;;;;5109863;28;8914;-69
2023/08/01 09:54:54;;;;;;;;;11.50;10.25;;;;;;;;5109635;28;8910;-68
2023/08/01 09:57:21;;;;;;;;;8.00;7.00;;;;;;;;5122352;22;8878;-79
2023/08/01 09:59:47;;;;;;;;;8.00;8.00;;;;;;;;5070608;28;8823;-78
2023/08/01 10:02:15;;;;;;;;;8.00;8.00;;;;;;;;5070642;28;8785;-79
2023/08/01 10:04:41;;;;;;;;;15.00;9.75;;;;;;;;5070328;28;8942;-77
2023/08/01 10:07:08;;;;;;;;;9.50;7.00;;;;;;;;5070416;28;8832;-77
2023/08/01 10:09:35;;;;;;;;;8.25;8.25;;;;;;;;5070660;28;8792;-77
2023/08/01 10:12:01;;;;;;;;;9.25;7.00;;;;;;;;5070629;28;8812;-77
2023/08/01 10:14:27;;;;;;;;;9.00;9.00;;;;;;;;5070163;28;8888;-77
2023/08/01 10:16:53;;;;;;;;;7.33;6.00;;;;;;;;5048835;28;9537;-76
2023/08/01 10:19:19;;;;;;;;;9.00;8.00;;;;;;;;5050368;28;8824;-76
2023/08/01 10:21:46;;;;;;;;;10.33;9.33;;;;;;;;5050276;28;8805;-76
2023/08/01 10:24:13;;;;;;;;;8.00;5.75;;;;;;;;5050081;28;11521;-76
2023/08/01 10:26:38;;;;;;;;;7.50;7.50;;;;;;;;5050165;28;8821;-76
2023/08/01 10:29:04;;;;;;;;;10.00;7.33;;;;;;;;5050066;28;8794;-76
2023/08/01 10:31:29;;;;;;;;;10.00;9.00;;;;;;;;5050451;28;8821;-77
2023/08/01 10:34:03;;;;;;;;;10.00;10.00;;;;;;;;5049001;28;8809;-77
2023/08/01 10:36:31;;;;;;;;;9.50;7.50;;;;;;;;5050106;28;8829;-77
2023/08/01 10:38:57;;;;;;;;;10.00;9.00;;;;;;;;5050133;28;8790;-77
2023/08/01 10:41:32;;;;;;;;;11.50;10.00;;;;;;;;5050060;28;8801;-77
2023/08/01 10:44:12;;;;;;;;;12.75;11.00;;;;;;;;5050546;28;8932;-77
2023/08/01 10:46:50;;;;;;;;;10.25;8.50;;;;;;;;5053776;28;8840;-77
2023/08/01 10:49:16;;;;;;;;;11.50;11.00;;;;;;;;5052489;28;8836;-78
2023/08/01 10:51:42;;;;;;;;;9.67;7.33;;;;;;;;5053703;28;8805;-78
2023/08/01 10:54:17;;;;;;;;;8.00;8.00;;;;;;;;5053578;28;8790;-77
2023/08/01 10:56:44;;;;;;;;;8.50;6.50;;;;;;;;5067289;22;8932;-69
2023/08/01 10:59:10;;;;;;;;;7.50;7.00;;;;;;;;5052393;28;8794;-68
2023/08/01 11:01:43;;;;;;;;;9.00;7.00;;;;;;;;5052252;28;8813;-69
2023/08/01 11:04:18;;;;;;;;;8.00;8.00;;;;;;;;5034411;28;8980;-68
2023/08/01 11:06:44;;;;;;;;;7.50;6.75;;;;;;;;5051957;28;8818;-69
2023/08/01 11:09:22;;;;;;;;;8.00;8.00;;;;;;;;5052071;28;8790;-68
2023/08/01 11:11:52;;;;;;;;;12.25;10.75;;;;;;;;5051943;28;11418;-68
2023/08/01 11:14:19;;;;;;;;;11.25;8.75;;;;;;;;5033945;28;8798;-68
2023/08/01 11:16:45;;;;;;;;;10.00;8.25;;;;;;;;5051893;28;8787;-69
2023/08/01 11:19:20;;;;;;;;;9.33;9.00;;;;;;;;5051870;28;8844;-69
2023/08/01 11:21:45;;;;;;;;;8.00;6.50;;;;;;;;5051947;28;8859;-68
2023/08/01 11:24:11;;;;;;;;;7.33;7.33;;;;;;;;5051803;28;8803;-68
2023/08/01 11:26:40;;;;;;;;;12.33;9.67;;;;;;;;5051834;28;8834;-68
2023/08/01 11:29:05;;;;;;;;;10.00;9.00;;;;;;;;5051807;28;8786;-69
2023/08/01 11:31:31;;;;;;;;;11.00;9.67;;;;;;;;5033603;28;8814;-68
2023/08/01 11:33:57;;;;;;;;;9.33;8.00;;;;;;;;5052609;28;8870;-69
2023/08/01 11:36:24;;;;;;;;;7.25;6.75;;;;;;;;5052306;28;8778;-69
2023/08/01 11:38:49;;;;;;;;;8.50;8.50;;;;;;;;5051780;28;8824;-69
2023/08/01 11:41:15;;;;;;;;;8.67;8.67;;;;;;;;5051557;28;8794;-69
2023/08/01 11:43:40;;;;;;;;;6.33;3.67;;;;;;;;5051475;28;8806;-69
2023/08/01 11:46:06;;;;;;;;;11.67;8.00;;;;;;;;5051241;28;8896;-69
2023/08/01 11:48:31;;;;;;;;;9.33;8.00;;;;;;;;5051390;28;8787;-69
2023/08/01 11:50:58;;;;;;;;;10.67;7.67;;;;;;;;5051435;28;8929;-69
2023/08/01 11:53:23;;;;;;;;;7.00;7.00;;;;;;;;5051286;28;8913;-68
2023/08/01 11:55:52;;;;;;;;;6.33;6.33;;;;;;;;5051474;28;8874;-69
2023/08/01 11:58:38;;;;;;;;;9.00;9.00;;;;;;;;5033299;28;8806;-68
2023/08/01 12:01:09;;;;;;;;;10.50;9.00;;;;;;;;5032922;28;8802;-68
2023/08/01 12:03:44;;;;;;;;;8.75;7.25;;;;;;;;5050925;28;8808;-68
2023/08/01 12:06:11;;;;;;;;;6.50;6.50;;;;;;;;5050666;28;8798;-68
2023/08/01 12:08:37;;;;;;;;;9.50;6.75;;;;;;;;5033002;28;9521;-69
2023/08/01 12:11:03;;;;;;;;;8.00;8.00;;;;;;;;5050879;28;8794;-69
2023/08/01 12:13:28;;;;;;;;;8.33;8.33;;;;;;;;5050699;28;8782;-69
2023/08/01 12:15:57;;;;;;;;;9.67;8.33;;;;;;;;5050745;28;8783;-69
2023/08/01 12:18:27;;;;;;;;;8.75;7.75;;;;;;;;5050659;28;8833;-69
2023/08/01 12:20:52;;;;;;;;;10.00;8.75;;;;;;;;5050487;28;8782;-68
2023/08/01 12:23:17;;;;;;;;;8.00;8.00;;;;;;;;5050518;28;8889;-68
2023/08/01 12:25:43;;;;;;;;;9.00;7.00;;;;;;;;5050732;28;8909;-68
2023/08/01 12:28:08;;;;;;;;;7.67;6.67;;;;;;;;5032627;28;9653;-69
2023/08/01 12:30:34;;;;;;;;;10.00;7.00;;;;;;;;5050669;28;8803;-69
2023/08/01 12:33:00;;;;;;;;;7.00;5.33;;;;;;;;5050425;28;8801;-69
2023/08/01 12:35:25;;;;;;;;;9.50;8.00;;;;;;;;5032400;28;8822;-69
2023/08/01 12:37:52;;;;;;;;;10.00;7.00;;;;;;;;5050316;28;9581;-68
2023/08/01 12:40:17;;;;;;;;;7.50;7.00;;;;;;;;5050255;28;8810;-69
2023/08/01 12:42:43;;;;;;;;;6.67;6.67;;;;;;;;5050250;28;8883;-68
2023/08/01 12:45:08;;;;;;;;;6.67;6.67;;;;;;;;5050264;28;8825;-68
2023/08/01 12:47:33;;;;;;;;;7.00;6.33;;;;;;;;5050076;28;8845;-69
2023/08/01 12:49:58;;;;;;;;;5.00;5.00;;;;;;;;5050222;28;8906;-70
2023/08/01 12:52:25;;;;;;;;;7.00;7.00;;;;;;;;5050037;28;8798;-67
2023/08/01 12:54:50;;;;;;;;;9.25;6.75;;;;;;;;5032045;28;8880;-68
2023/08/01 12:57:16;;;;;;;;;9.00;6.67;;;;;;;;5050346;28;8850;-68
2023/08/01 12:59:41;;;;;;;;;10.67;8.00;;;;;;;;5049808;28;8924;-68
2023/08/01 13:02:08;;;;;;;;;5.33;5.33;;;;;;;;5049955;28;8787;-68
2023/08/01 13:04:33;;;;;;;;;8.50;8.50;;;;;;;;5049721;28;9552;-70
2023/08/01 13:06:59;;;;;;;;;9.00;6.67;;;;;;;;5049449;28;8932;-68
2023/08/01 13:09:24;;;;;;;;;6.33;6.00;;;;;;;;5049921;28;8816;-69
2023/08/01 13:11:49;;;;;;;;;7.00;7.00;;;;;;;;5050110;28;8770;-69
2023/08/01 13:14:14;;;;;;;;;7.00;7.00;;;;;;;;5049780;28;8971;-68
2023/08/01 13:16:40;;;;;;;;;6.67;6.33;;;;;;;;5049864;28;8978;-69
2023/08/01 13:19:07;;;;;;;;;9.00;7.00;;;;;;;;5031906;28;8831;-68
2023/08/01 13:21:33;;;;;;;;;7.00;7.00;;;;;;;;5049566;28;8806;-68
2023/08/01 13:23:59;;;;;;;;;9.25;9.00;;;;;;;;5049962;28;8921;-68
2023/08/01 13:26:25;;;;;;;;;7.33;7.00;;;;;;;;5031855;28;8929;-68
2023/08/01 13:28:50;;;;;;;;;11.00;11.00;;;;;;;;5049455;28;8802;-69
2023/08/01 13:31:15;;;;;;;;;6.67;5.33;;;;;;;;5049559;28;8941;-68
2023/08/01 13:33:40;;;;;;;;;13.67;13.00;;;;;;;;5049336;28;8852;-68
2023/08/01 13:36:06;;;;;;;;;7.00;7.00;;;;;;;;5049207;28;8790;-68
2023/08/01 13:38:32;;;;;;;;;8.67;8.00;;;;;;;;5049369;28;8810;-68
2023/08/01 13:41:01;;;;;;;;;7.67;7.67;;;;;;;;5031587;28;8933;-69
2023/08/01 13:43:26;;;;;;;;;7.00;7.00;;;;;;;;5049325;28;8826;-68
2023/08/01 13:45:52;;;;;;;;;6.67;6.00;;;;;;;;5049483;28;8803;-68
2023/08/01 13:48:18;;;;;;;;;9.75;7.75;;;;;;;;5049182;28;8822;-69
2023/08/01 13:50:43;;;;;;;;;11.00;9.00;;;;;;;;5049016;28;8937;-69
2023/08/01 13:53:11;;;;;;;;;10.00;9.00;;;;;;;;5049145;28;8952;-69
2023/08/01 13:55:37;;;;;;;;;9.75;8.25;;;;;;;;5049328;28;8826;-70
2023/08/01 13:58:02;;;;;;;;;6.00;6.00;;;;;;;;5049269;28;8818;-69
2023/08/01 14:00:27;;;;;;;;;8.00;6.33;;;;;;;;5031410;28;8882;-69
2023/08/01 14:02:53;;;;;;;;;5.67;5.67;;;;;;;;5049283;28;8913;-70
2023/08/01 14:05:18;;;;;;;;;7.00;7.00;;;;;;;;5049089;28;8817;-69
2023/08/01 14:07:44;;;;;;;;;9.67;7.00;;;;;;;;5031217;28;8830;-69
2023/08/01 14:10:09;;;;;;;;;6.33;6.33;;;;;;;;5049742;28;8774;-69
2023/08/01 14:12:35;;;;;;;;;9.67;9.67;;;;;;;;5049219;28;8795;-68
2023/08/01 14:15:00;;;;;;;;;10.33;9.00;;;;;;;;5049069;28;8794;-68
2023/08/01 14:17:25;;;;;;;;;10.00;9.67;;;;;;;;5049012;28;8839;-68
2023/08/01 14:19:51;;;;;;;;;8.67;8.33;;;;;;;;5052217;28;8872;-69
2023/08/01 14:22:16;;;;;;;;;8.33;7.67;;;;;;;;5052557;28;8807;-68
2023/08/01 14:24:42;;;;;;;;;11.00;9.00;;;;;;;;5052833;28;8774;-69
2023/08/01 14:27:08;;;;;;;;;8.00;8.00;;;;;;;;5052780;28;8842;-67
2023/08/01 14:29:33;;;;;;;;;12.33;10.67;;;;;;;;5052748;28;9035;-68
2023/08/01 14:31:58;;;;;;;;;12.33;10.00;;;;;;;;5052730;28;8778;-68
2023/08/01 14:34:23;;;;;;;;;19.67;18.00;;;;;;;;5052573;28;8829;-68
2023/08/01 14:36:49;;;;;;;;;16.00;12.00;;;;;;;;5052403;28;8875;-68
2023/08/01 14:39:14;;;;;;;;;9.00;9.00;;;;;;;;5052929;28;8825;-68
2023/08/01 14:41:39;;;;;;;;;11.00;9.00;;;;;;;;5052623;28;8860;-68
2023/08/01 14:44:05;;;;;;;;;11.67;10.00;;;;;;;;5052424;28;8778;-67
2023/08/01 14:46:30;;;;;;;;;14.00;11.67;;;;;;;;5052365;28;8861;-67
2023/08/01 14:48:56;;;;;;;;;12.00;11.00;;;;;;;;5052553;28;8940;-68
2023/08/01 14:51:21;;;;;;;;;9.00;9.00;;;;;;;;5052184;28;8794;-68
2023/08/01 14:53:46;;;;;;;;;9.00;9.00;;;;;;;;5052393;28;8805;-68
2023/08/01 14:56:12;;;;;;;;;9.00;8.00;;;;;;;;5052772;28;8782;-73
2023/08/01 14:58:39;;;;;;;;;7.67;7.67;;;;;;;;5050015;28;8921;-67
2023/08/01 15:01:05;;;;;;;;;8.75;8.75;;;;;;;;5052055;28;8789;-69
2023/08/01 15:03:30;;;;;;;;;10.75;9.00;;;;;;;;5051672;28;8925;-67
2023/08/01 15:05:56;;;;;;;;;8.67;8.00;;;;;;;;5051551;28;8914;-69
2023/08/01 15:08:21;;;;;;;;;12.00;9.00;;;;;;;;5051517;28;9646;-70
2023/08/01 15:10:46;;;;;;;;;12.00;9.00;;;;;;;;5051985;28;8906;-67
2023/08/01 15:13:12;;;;;;;;;9.00;9.00;;;;;;;;5051587;28;8771;-69
2023/08/01 15:15:37;;;;;;;;;10.00;8.67;;;;;;;;5051742;28;8953;-68
2023/08/01 15:18:02;;;;;;;;;13.67;8.67;;;;;;;;5051962;28;8814;-70
2023/08/01 15:20:28;;;;;;;;;10.00;9.00;;;;;;;;5051743;28;9527;-68
2023/08/01 15:22:53;;;;;;;;;9.00;9.00;;;;;;;;5051777;28;8939;-68
2023/08/01 15:25:18;;;;;;;;;10.00;9.00;;;;;;;;5051673;28;8920;-68
2023/08/01 15:27:43;;;;;;;;;9.67;9.33;;;;;;;;5051589;28;8921;-68
2023/08/01 15:30:09;;;;;;;;;10.67;9.67;;;;;;;;5051096;28;8799;-68
2023/08/01 15:32:34;;;;;;;;;12.00;11.00;;;;;;;;5051722;28;8813;-68
2023/08/01 15:34:59;;;;;;;;;8.00;8.00;;;;;;;;5051608;28;8945;-69
2023/08/01 15:37:27;;;;;;;;;8.00;8.00;;;;;;;;5051255;28;8798;-69
2023/08/01 15:39:52;;;;;;;;;8.75;8.75;;;;;;;;5051566;28;8864;-69
2023/08/01 15:42:17;;;;;;;;;9.33;9.33;;;;;;;;5051392;28;8814;-68
2023/08/01 15:44:43;;;;;;;;;8.67;7.33;;;;;;;;5051406;28;8786;-69
2023/08/01 15:47:08;;;;;;;;;8.33;8.33;;;;;;;;5051179;28;8921;-69
2023/08/01 15:49:34;;;;;;;;;7.00;7.00;;;;;;;;5051292;28;8774;-70
2023/08/01 15:51:59;;;;;;;;;8.67;7.67;;;;;;;;5050907;28;8802;-70
2023/08/01 15:54:24;;;;;;;;;8.67;7.67;;;;;;;;5050714;28;8898;-69
2023/08/01 15:56:50;;;;;;;;;7.00;7.00;;;;;;;;5051269;28;8928;-68
2023/08/01 15:59:15;;;;;;;;;6.67;5.00;;;;;;;;5051146;28;8786;-69
2023/08/01 16:01:40;;;;;;;;;8.33;7.00;;;;;;;;5051175;28;8814;-67
2023/08/01 16:04:06;;;;;;;;;11.00;9.00;;;;;;;;5050473;28;8941;-68
2023/08/01 16:06:31;;;;;;;;;12.00;10.67;;;;;;;;5030768;28;8813;-68
2023/08/01 16:08:56;;;;;;;;;8.00;8.00;;;;;;;;5031090;28;8935;-67
2023/08/01 16:11:21;;;;;;;;;14.33;14.33;;;;;;;;5031110;28;8793;-67
2023/08/01 16:13:47;;;;;;;;;11.67;11.67;;;;;;;;5030838;28;8827;-67
2023/08/01 16:16:12;;;;;;;;;15.67;14.33;;;;;;;;5037224;28;8798;-67
2023/08/01 16:18:37;;;;;;;;;8.67;7.67;;;;;;;;5050747;28;8836;-67
2023/08/01 16:21:03;;;;;;;;;8.00;8.00;;;;;;;;5032440;28;8960;-68
2023/08/01 16:23:28;;;;;;;;;8.33;8.33;;;;;;;;5050592;28;8883;-67
2023/08/01 16:25:54;;;;;;;;;10.00;9.00;;;;;;;;5050560;28;9461;-68
2023/08/01 16:28:19;;;;;;;;;14.67;12.00;;;;;;;;5050443;28;8810;-67
2023/08/01 16:30:45;;;;;;;;;9.67;7.00;;;;;;;;5032542;28;8822;-67
2023/08/01 16:33:11;;;;;;;;;13.33;13.33;;;;;;;;5050456;28;8910;-67
2023/08/01 16:35:36;;;;;;;;;14.50;14.50;;;;;;;;5032070;28;8826;-67
2023/08/01 16:38:02;;;;;;;;;9.67;8.33;;;;;;;;5050188;28;8883;-67
2023/08/01 16:40:27;;;;;;;;;16.33;10.33;;;;;;;;5049710;28;8895;-68
2023/08/01 16:42:52;;;;;;;;;11.67;10.67;;;;;;;;5049890;28;8900;-68
2023/08/01 16:45:18;;;;;;;;;10.33;10.00;;;;;;;;5050240;28;8778;-68
2023/08/01 16:47:43;;;;;;;;;8.33;8.33;;;;;;;;5032020;28;9651;-68
2023/08/01 16:50:15;;;;;;;;;8.00;7.67;;;;;;;;5049819;28;8810;-68
2023/08/01 16:52:40;;;;;;;;;11.00;10.25;;;;;;;;5049907;28;8855;-68
2023/08/01 16:55:06;;;;;;;;;11.00;9.67;;;;;;;;5049672;28;8932;-68
2023/08/01 16:57:31;;;;;;;;;12.00;11.00;;;;;;;;5049739;28;8880;-68
2023/08/01 16:59:57;;;;;;;;;11.33;9.00;;;;;;;;5049996;28;8807;-68
2023/08/01 17:02:22;;;;;;;;;9.00;7.33;;;;;;;;5049707;28;8899;-68
2023/08/01 17:04:47;;;;;;;;;10.33;9.00;;;;;;;;5048267;28;8940;-68
2023/08/01 17:07:13;;;;;;;;;14.00;11.33;;;;;;;;5047300;28;8845;-68
2023/08/01 17:09:38;;;;;;;;;9.67;9.67;;;;;;;;5048451;28;8829;-68
2023/08/01 17:12:03;;;;;;;;;12.00;9.00;;;;;;;;5042777;28;8817;-68
2023/08/01 17:14:29;;;;;;;;;9.33;9.33;;;;;;;;5037787;28;8822;-68
2023/08/01 17:16:55;;;;;;;;;10.00;8.33;;;;;;;;5039303;28;8799;-68
2023/08/01 17:19:20;;;;;;;;;8.33;6.67;;;;;;;;5037324;28;8805;-68
2023/08/01 17:21:45;;;;;;;;;10.00;10.00;;;;;;;;5038101;28;8812;-67
2023/08/01 17:24:11;;;;;;;;;8.00;8.00;;;;;;;;5038364;28;9587;-68
2023/08/01 17:26:37;;;;;;;;;10.00;10.00;;;;;;;;5036722;28;9668;-68
2023/08/01 17:29:02;;;;;;;;;10.67;7.00;;;;;;;;5038708;28;8795;-68
2023/08/01 17:31:31;;;;;;;;;10.33;8.67;;;;;;;;5038450;28;9630;-67
2023/08/01 17:33:58;;;;;;;;;10.25;9.50;;;;;;;;5019039;28;8836;-68
2023/08/01 17:36:23;;;;;;;;;7.50;6.75;;;;;;;;5038510;28;9698;-69
2023/08/01 17:38:48;;;;;;;;;15.00;13.67;;;;;;;;5046641;28;8852;-70
2023/08/01 17:41:18;;;;;;;;;9.67;8.00;;;;;;;;5047930;28;8799;-67
2023/08/01 17:43:43;;;;;;;;;10.00;9.00;;;;;;;;5031296;28;8899;-66
2023/08/01 17:46:09;;;;;;;;;11.00;9.00;;;;;;;;5049196;28;8924;-66
2023/08/01 17:48:36;;;;;;;;;10.50;10.50;;;;;;;;5049048;28;8803;-67
2023/08/01 17:51:02;;;;;;;;;12.25;10.00;;;;;;;;5049065;28;9563;-67
2023/08/01 17:53:27;;;;;;;;;9.00;7.33;;;;;;;;5049013;28;8783;-67
2023/08/01 17:55:52;;;;;;;;;12.00;8.00;;;;;;;;5049490;28;9696;-67
2023/08/01 17:58:18;;;;;;;;;11.33;10.33;;;;;;;;5048990;28;8841;-66
2023/08/01 18:00:43;;;;;;;;;15.00;13.00;;;;;;;;5048941;28;8806;-67
2023/08/01 18:03:09;;;;;;;;;11.67;10.67;;;;;;;;5048875;28;8794;-66
2023/08/01 18:05:34;;;;;;;;;11.67;9.00;;;;;;;;5048883;28;8855;-67
2023/08/01 18:07:59;;;;;;;;;10.67;8.67;;;;;;;;5048971;28;9525;-67
2023/08/01 18:10:26;;;;;;;;;10.67;7.00;;;;;;;;5049249;28;9610;-67
2023/08/01 18:12:51;;;;;;;;;8.25;7.50;;;;;;;;5048937;28;8798;-66
2023/08/01 18:15:17;;;;;;;;;9.00;7.00;;;;;;;;5048998;28;8790;-66
2023/08/01 18:17:42;;;;;;;;;8.33;8.33;;;;;;;;5048870;28;8883;-66
2023/08/01 18:20:10;;;;;;;;;6.00;5.33;;;;;;;;5049005;28;8873;-67
2023/08/01 18:22:35;;;;;;;;;9.00;8.00;;;;;;;;5048712;28;8782;-67
2023/08/01 18:25:00;;;;;;;;;10.00;8.67;;;;;;;;5049218;28;8982;-67
2023/08/01 18:27:25;;;;;;;;;8.67;8.67;;;;;;;;5048859;28;9540;-66
2023/08/01 18:29:51;;;;;;;;;8.67;8.33;;;;;;;;5048796;28;8805;-66
2023/08/01 18:32:16;;;;;;;;;7.67;4.00;;;;;;;;5048630;28;8817;-66
2023/08/01 18:34:41;;;;;;;;;7.67;7.33;;;;;;;;5048739;28;8802;-66
2023/08/01 18:37:06;;;;;;;;;11.00;11.00;;;;;;;;5048569;28;8837;-65
2023/08/01 18:39:32;;;;;;;;;8.67;8.00;;;;;;;;5048589;28;8975;-67
2023/08/01 18:41:57;;;;;;;;;7.00;7.00;;;;;;;;5048585;28;8787;-66
2023/08/01 18:44:22;;;;;;;;;8.00;6.67;;;;;;;;5048637;28;9494;-66
2023/08/01 18:46:48;;;;;;;;;9.67;8.00;;;;;;;;5048181;28;8961;-66
2023/08/01 18:49:13;;;;;;;;;12.00;11.00;;;;;;;;5030736;28;8825;-66
2023/08/01 18:51:39;;;;;;;;;8.33;7.33;;;;;;;;5048437;28;8791;-67
2023/08/01 18:54:06;;;;;;;;;9.33;7.33;;;;;;;;5048466;28;8791;-67
2023/08/01 18:56:31;;;;;;;;;10.25;10.00;;;;;;;;5048826;28;8783;-66
2023/08/01 18:58:56;;;;;;;;;8.33;8.00;;;;;;;;5048722;28;8923;-68
2023/08/01 19:01:23;;;;;;;;;6.00;6.00;;;;;;;;5048480;28;8778;-66
